createdAt,value
2022-07-28T00:00:10.222Z,1015.40
2022-07-28T00:01:10.154Z,1015.40
2022-07-28T00:02:10.178Z,1015.40
2022-07-28T00:03:10.162Z,1015.39
2022-07-28T00:04:10.206Z,1015.39
2022-07-28T00:05:09.882Z,1015.44
2022-07-28T00:06:10.057Z,1015.42
2022-07-28T00:07:09.858Z,1015.40
2022-07-28T00:08:09.692Z,1015.45
2022-07-28T00:09:09.602Z,1015.44
2022-07-28T00:10:09.586Z,1015.42
2022-07-28T00:11:09.578Z,1015.45
2022-07-28T00:12:09.480Z,1015.47
2022-07-28T00:13:09.485Z,1015.46
2022-07-28T00:14:09.384Z,1015.45
2022-07-28T00:15:09.300Z,1015.47
2022-07-28T00:16:09.309Z,1015.49
2022-07-28T00:17:09.208Z,1015.49
2022-07-28T00:18:09.148Z,1015.44
2022-07-28T00:19:09.026Z,1015.48
2022-07-28T00:20:08.952Z,1015.45
2022-07-28T00:21:08.945Z,1015.45
2022-07-28T00:22:08.845Z,1015.44
2022-07-28T00:23:08.769Z,1015.45
2022-07-28T00:24:08.748Z,1015.44
2022-07-28T00:25:08.743Z,1015.48
2022-07-28T00:26:08.583Z,1015.45
2022-07-28T00:27:08.562Z,1015.47
2022-07-28T00:28:08.457Z,1015.45
2022-07-28T00:29:08.358Z,1015.45
2022-07-28T00:30:08.383Z,1015.46
2022-07-28T00:31:10.090Z,1015.44
2022-07-28T00:32:08.281Z,1015.43
2022-07-28T00:33:08.196Z,1015.40
2022-07-28T00:34:08.106Z,1015.46
2022-07-28T00:35:08.317Z,1015.43
2022-07-28T00:36:10.274Z,1015.37
2022-07-28T00:37:07.911Z,1015.40
2022-07-28T00:38:07.837Z,1015.42
2022-07-28T00:39:07.913Z,1015.39
2022-07-28T00:40:07.767Z,1015.43
2022-07-28T00:41:07.654Z,1015.46
2022-07-28T00:42:07.566Z,1015.40
2022-07-28T00:43:07.544Z,1015.47
2022-07-28T00:44:07.468Z,1015.40
2022-07-28T00:45:07.452Z,1015.43
2022-07-28T00:46:07.400Z,1015.47
2022-07-28T00:47:07.281Z,1015.49
2022-07-28T00:48:07.266Z,1015.47
2022-07-28T00:49:07.254Z,1015.44
2022-07-28T00:50:07.102Z,1015.50
2022-07-28T00:51:07.077Z,1015.50
2022-07-28T00:52:06.985Z,1015.45
2022-07-28T00:53:06.912Z,1015.46
2022-07-28T00:54:06.820Z,1015.46
2022-07-28T00:55:06.804Z,1015.44
2022-07-28T00:56:07.144Z,1015.45
2022-07-28T00:57:06.811Z,1015.44
2022-07-28T00:58:06.620Z,1015.42
2022-07-28T00:59:06.614Z,1015.41
2022-07-28T01:00:06.524Z,1015.40
2022-07-28T01:01:06.435Z,1015.47
2022-07-28T01:02:06.497Z,1015.40
2022-07-28T01:03:06.309Z,1015.42
2022-07-28T01:04:06.251Z,1015.42
2022-07-28T01:05:06.174Z,1015.41
2022-07-28T01:06:06.156Z,1015.42
2022-07-28T01:07:06.084Z,1015.42
2022-07-28T01:08:05.995Z,1015.41
2022-07-28T01:09:05.975Z,1015.44
2022-07-28T01:10:05.878Z,1015.40
2022-07-28T01:11:05.808Z,1015.47
2022-07-28T01:12:05.798Z,1015.45
2022-07-28T01:13:05.685Z,1015.45
2022-07-28T01:14:05.615Z,1015.47
2022-07-28T01:15:05.600Z,1015.48
2022-07-28T01:16:05.585Z,1015.47
2022-07-28T01:17:05.439Z,1015.53
2022-07-28T01:18:05.440Z,1015.46
2022-07-28T01:19:05.408Z,1015.51
2022-07-28T01:20:05.226Z,1015.48
2022-07-28T01:21:05.250Z,1015.48
2022-07-28T01:22:05.131Z,1015.49
2022-07-28T01:23:05.040Z,1015.48
2022-07-28T01:24:05.044Z,1015.51
2022-07-28T01:25:04.961Z,1015.51
2022-07-28T01:26:04.852Z,1015.48
2022-07-28T01:27:04.778Z,1015.50
2022-07-28T01:28:04.757Z,1015.51
2022-07-28T01:29:04.673Z,1015.48
2022-07-28T01:30:04.676Z,1015.48
2022-07-28T01:31:04.682Z,1015.51
2022-07-28T01:32:04.495Z,1015.52
2022-07-28T01:33:04.407Z,1015.53
2022-07-28T01:34:04.397Z,1015.54
2022-07-28T01:35:04.423Z,1015.54
2022-07-28T01:36:04.220Z,1015.52
2022-07-28T01:37:04.195Z,1015.52
2022-07-28T01:38:04.109Z,1015.52
2022-07-28T01:39:04.102Z,1015.53
2022-07-28T01:40:04.017Z,1015.55
2022-07-28T01:41:03.921Z,1015.52
2022-07-28T01:42:03.857Z,1015.56
2022-07-28T01:43:03.823Z,1015.58
2022-07-28T01:44:03.827Z,1015.58
2022-07-28T01:45:03.731Z,1015.58
2022-07-28T01:46:03.782Z,1015.56
2022-07-28T01:47:03.552Z,1015.57
2022-07-28T01:48:03.477Z,1015.57
2022-07-28T01:49:03.526Z,1015.58
2022-07-28T01:50:03.393Z,1015.53
2022-07-28T01:51:03.300Z,1015.55
2022-07-28T01:52:03.277Z,1015.54
2022-07-28T01:53:03.181Z,1015.54
2022-07-28T01:54:03.189Z,1015.54
2022-07-28T01:55:03.089Z,1015.50
2022-07-28T01:56:02.990Z,1015.52
2022-07-28T01:57:02.879Z,1015.54
2022-07-28T01:58:02.818Z,1015.53
2022-07-28T01:59:02.753Z,1015.53
2022-07-28T02:00:02.692Z,1015.51
2022-07-28T02:01:02.672Z,1015.53
2022-07-28T02:02:02.728Z,1015.50
2022-07-28T02:03:02.505Z,1015.52
2022-07-28T02:04:02.443Z,1015.51
2022-07-28T02:05:02.437Z,1015.50
2022-07-28T02:06:02.320Z,1015.47
2022-07-28T02:07:02.252Z,1015.48
2022-07-28T02:08:02.191Z,1015.46
2022-07-28T02:09:02.129Z,1015.45
2022-07-28T02:10:02.069Z,1015.44
2022-07-28T02:11:02.000Z,1015.46
2022-07-28T02:12:01.940Z,1015.45
2022-07-28T02:13:01.878Z,1015.43
2022-07-28T02:14:01.815Z,1015.44
2022-07-28T02:15:01.749Z,1015.42
2022-07-28T02:16:01.733Z,1015.45
2022-07-28T02:17:01.626Z,1015.44
2022-07-28T02:18:01.567Z,1015.46
2022-07-28T02:19:01.501Z,1015.49
2022-07-28T02:20:01.441Z,1015.47
2022-07-28T02:21:01.379Z,1015.44
2022-07-28T02:22:01.312Z,1015.45
2022-07-28T02:23:01.249Z,1015.42
2022-07-28T02:24:01.188Z,1015.45
2022-07-28T02:25:01.126Z,1015.39
2022-07-28T02:26:01.066Z,1015.45
2022-07-28T02:27:01.000Z,1015.46
2022-07-28T02:28:00.938Z,1015.44
2022-07-28T02:29:00.873Z,1015.48
2022-07-28T02:30:00.814Z,1015.42
2022-07-28T02:31:00.845Z,1015.47
2022-07-28T02:32:00.694Z,1015.46
2022-07-28T02:33:00.621Z,1015.47
2022-07-28T02:34:12.502Z,1015.44
2022-07-28T02:35:00.498Z,1015.49
2022-07-28T02:36:00.449Z,1015.49
2022-07-28T02:37:00.373Z,1015.52
2022-07-28T02:38:00.311Z,1015.53
2022-07-28T02:39:00.248Z,1015.57
2022-07-28T02:40:00.834Z,1015.56
2022-07-28T02:41:00.121Z,1015.50
2022-07-28T02:42:00.089Z,1015.57
2022-07-28T02:42:59.997Z,1015.52
2022-07-28T02:43:59.945Z,1015.52
2022-07-28T02:44:59.870Z,1015.56
2022-07-28T02:45:59.871Z,1015.50
2022-07-28T02:46:59.748Z,1015.53
2022-07-28T02:47:59.685Z,1015.53
2022-07-28T02:48:59.676Z,1015.49
2022-07-28T02:49:59.561Z,1015.52
2022-07-28T02:50:59.495Z,1015.59
2022-07-28T02:51:59.450Z,1015.56
2022-07-28T02:52:59.369Z,1015.57
2022-07-28T02:53:59.308Z,1015.60
2022-07-28T02:54:59.247Z,1015.55
2022-07-28T02:55:59.186Z,1015.64
2022-07-28T02:56:59.119Z,1015.59
2022-07-28T02:57:59.062Z,1015.62
2022-07-28T02:58:58.997Z,1015.63
2022-07-28T02:59:58.948Z,1015.63
2022-07-28T03:00:58.926Z,1015.61
2022-07-28T03:01:58.824Z,1015.66
2022-07-28T03:02:58.745Z,1015.63
2022-07-28T03:03:58.681Z,1015.64
2022-07-28T03:04:58.876Z,1015.64
2022-07-28T03:05:58.556Z,1015.66
2022-07-28T03:06:58.490Z,1015.65
2022-07-28T03:07:58.432Z,1015.64
2022-07-28T03:08:58.367Z,1015.65
2022-07-28T03:09:58.303Z,1015.67
2022-07-28T03:10:58.238Z,1015.67
2022-07-28T03:11:58.178Z,1015.66
2022-07-28T03:12:58.112Z,1015.68
2022-07-28T03:13:58.051Z,1015.66
2022-07-28T03:14:57.992Z,1015.65
2022-07-28T03:15:57.927Z,1015.66
2022-07-28T03:16:57.926Z,1015.65
2022-07-28T03:17:57.800Z,1015.73
2022-07-28T03:18:57.793Z,1015.69
2022-07-28T03:19:57.676Z,1015.71
2022-07-28T03:20:57.609Z,1015.72
2022-07-28T03:21:57.551Z,1015.73
2022-07-28T03:22:57.487Z,1015.73
2022-07-28T03:23:57.425Z,1015.80
2022-07-28T03:24:57.357Z,1015.83
2022-07-28T03:25:57.298Z,1015.82
2022-07-28T03:26:57.237Z,1015.88
2022-07-28T03:27:57.176Z,1015.88
2022-07-28T03:28:57.108Z,1015.91
2022-07-28T03:29:59.195Z,1015.92
2022-07-28T03:30:57.076Z,1015.90
2022-07-28T03:31:56.922Z,1015.90
2022-07-28T03:32:56.856Z,1015.92
2022-07-28T03:33:56.809Z,1015.89
2022-07-28T03:34:56.730Z,1015.89
2022-07-28T03:35:56.669Z,1015.90
2022-07-28T03:36:56.604Z,1015.93
2022-07-28T03:37:56.558Z,1015.98
2022-07-28T03:38:56.482Z,1015.97
2022-07-28T03:39:56.417Z,1015.93
2022-07-28T03:40:56.354Z,1015.98
2022-07-28T03:41:56.294Z,1015.97
2022-07-28T03:42:56.225Z,1015.95
2022-07-28T03:43:56.171Z,1015.95
2022-07-28T03:44:56.099Z,1015.96
2022-07-28T03:45:56.103Z,1015.96
2022-07-28T03:46:55.976Z,1015.95
2022-07-28T03:47:55.916Z,1016.00
2022-07-28T03:48:55.889Z,1015.95
2022-07-28T03:49:55.794Z,1015.97
2022-07-28T03:50:55.722Z,1015.96
2022-07-28T03:51:55.662Z,1015.95
2022-07-28T03:52:55.596Z,1015.91
2022-07-28T03:53:55.537Z,1015.95
2022-07-28T03:54:55.472Z,1015.94
2022-07-28T03:55:55.410Z,1015.95
2022-07-28T03:56:55.350Z,1015.97
2022-07-28T03:57:55.283Z,1015.96
2022-07-28T03:58:55.224Z,1015.96
2022-07-28T03:59:55.163Z,1015.97
2022-07-28T04:00:55.184Z,1016.00
2022-07-28T04:01:55.032Z,1016.00
2022-07-28T04:02:55.021Z,1016.01
2022-07-28T04:03:54.910Z,1016.02
2022-07-28T04:04:54.844Z,1016.06
2022-07-28T04:05:54.779Z,1016.07
2022-07-28T04:06:54.723Z,1016.05
2022-07-28T04:07:54.660Z,1016.01
2022-07-28T04:08:54.591Z,1016.04
2022-07-28T04:09:54.532Z,1016.04
2022-07-28T04:10:54.476Z,1016.02
2022-07-28T04:11:54.414Z,1016.05
2022-07-28T04:12:54.337Z,1016.09
2022-07-28T04:13:54.278Z,1016.08
2022-07-28T04:14:54.212Z,1016.12
2022-07-28T04:15:54.157Z,1016.10
2022-07-28T04:16:54.162Z,1016.16
2022-07-28T04:17:54.027Z,1016.15
2022-07-28T04:18:53.967Z,1016.17
2022-07-28T04:19:53.902Z,1016.15
2022-07-28T04:20:53.843Z,1016.18
2022-07-28T04:21:53.775Z,1016.17
2022-07-28T04:22:53.711Z,1016.18
2022-07-28T04:23:57.238Z,1016.17
2022-07-28T04:24:53.585Z,1016.15
2022-07-28T04:25:53.537Z,1016.17
2022-07-28T04:26:53.459Z,1016.16
2022-07-28T04:27:53.396Z,1016.17
2022-07-28T04:28:53.335Z,1016.19
2022-07-28T04:29:53.273Z,1016.20
2022-07-28T04:30:53.308Z,1016.19
2022-07-28T04:31:53.145Z,1016.20
2022-07-28T04:32:53.084Z,1016.23
2022-07-28T04:33:53.023Z,1016.21
2022-07-28T04:34:52.956Z,1016.20
2022-07-28T04:35:52.959Z,1016.25
2022-07-28T04:36:52.831Z,1016.24
2022-07-28T04:37:52.773Z,1016.22
2022-07-28T04:38:52.712Z,1016.22
2022-07-28T04:39:52.646Z,1016.21
2022-07-28T04:40:52.596Z,1016.22
2022-07-28T04:41:52.519Z,1016.22
2022-07-28T04:42:52.458Z,1016.23
2022-07-28T04:43:52.392Z,1016.23
2022-07-28T04:44:52.329Z,1016.21
2022-07-28T04:45:53.842Z,1016.18
2022-07-28T04:46:52.204Z,1016.26
2022-07-28T04:47:52.143Z,1016.24
2022-07-28T04:48:52.111Z,1016.22
2022-07-28T04:49:52.017Z,1016.24
2022-07-28T04:50:51.955Z,1016.23
2022-07-28T04:51:51.897Z,1016.25
2022-07-28T04:52:51.826Z,1016.27
2022-07-28T04:53:51.772Z,1016.25
2022-07-28T04:54:51.703Z,1016.23
2022-07-28T04:55:51.769Z,1016.28
2022-07-28T04:56:51.581Z,1016.25
2022-07-28T04:57:51.522Z,1016.26
2022-07-28T04:58:51.457Z,1016.28
2022-07-28T04:59:51.397Z,1016.26
2022-07-28T05:00:51.460Z,1016.29
2022-07-28T05:01:51.398Z,1016.29
2022-07-28T05:02:51.204Z,1016.29
2022-07-28T05:03:51.147Z,1016.27
2022-07-28T05:04:51.146Z,1016.25
2022-07-28T05:05:53.855Z,1016.25
2022-07-28T05:06:50.965Z,1016.28
2022-07-28T05:07:50.896Z,1016.28
2022-07-28T05:08:50.842Z,1016.27
2022-07-28T05:09:50.770Z,1016.24
2022-07-28T05:10:50.705Z,1016.22
2022-07-28T05:11:50.645Z,1016.24
2022-07-28T05:12:50.579Z,1016.28
2022-07-28T05:13:50.519Z,1016.27
2022-07-28T05:14:50.455Z,1016.27
2022-07-28T05:15:50.397Z,1016.29
2022-07-28T05:16:50.388Z,1016.27
2022-07-28T05:17:50.287Z,1016.30
2022-07-28T05:18:50.218Z,1016.31
2022-07-28T05:19:50.151Z,1016.29
2022-07-28T05:20:50.087Z,1016.28
2022-07-28T05:21:50.022Z,1016.28
2022-07-28T05:22:49.968Z,1016.30
2022-07-28T05:23:49.899Z,1016.35
2022-07-28T05:24:49.839Z,1016.29
2022-07-28T05:25:49.779Z,1016.32
2022-07-28T05:26:49.715Z,1016.35
2022-07-28T05:27:49.656Z,1016.37
2022-07-28T05:28:49.601Z,1016.41
2022-07-28T05:29:51.693Z,1016.42
2022-07-28T05:30:49.475Z,1016.45
2022-07-28T05:31:49.553Z,1016.51
2022-07-28T05:32:49.351Z,1016.47
2022-07-28T05:33:49.294Z,1016.47
2022-07-28T05:34:49.258Z,1016.49
2022-07-28T05:35:49.174Z,1016.51
2022-07-28T05:36:49.113Z,1016.52
2022-07-28T05:37:49.052Z,1016.51
2022-07-28T05:38:49.006Z,1016.50
2022-07-28T05:39:48.932Z,1016.49
2022-07-28T05:40:48.879Z,1016.53
2022-07-28T05:41:48.811Z,1016.54
2022-07-28T05:42:48.753Z,1016.50
2022-07-28T05:43:48.694Z,1016.53
2022-07-28T05:44:48.634Z,1016.57
2022-07-28T05:45:48.676Z,1016.55
2022-07-28T05:46:48.526Z,1016.56
2022-07-28T05:47:48.478Z,1016.58
2022-07-28T05:48:48.442Z,1016.57
2022-07-28T05:49:48.335Z,1016.57
2022-07-28T05:50:48.278Z,1016.57
2022-07-28T05:51:48.217Z,1016.57
2022-07-28T05:52:48.165Z,1016.57
2022-07-28T05:53:48.100Z,1016.60
2022-07-28T05:54:48.051Z,1016.64
2022-07-28T05:56:00.720Z,1016.60
2022-07-28T05:56:50.259Z,1016.60
2022-07-28T05:57:47.868Z,1016.58
2022-07-28T05:58:47.810Z,1016.58
2022-07-28T05:59:47.757Z,1016.64
2022-07-28T06:00:47.725Z,1016.65
2022-07-28T06:01:47.748Z,1016.65
2022-07-28T06:02:47.654Z,1016.71
2022-07-28T06:03:58.084Z,1016.68
2022-07-28T06:04:47.466Z,1016.68
2022-07-28T06:06:00.490Z,1016.73
2022-07-28T06:06:47.348Z,1016.73
2022-07-28T06:07:47.284Z,1016.70
2022-07-28T06:08:47.283Z,1016.75
2022-07-28T06:09:47.192Z,1016.72
2022-07-28T06:10:47.384Z,1016.72
2022-07-28T06:11:47.053Z,1016.74
2022-07-28T06:12:46.994Z,1016.75
2022-07-28T06:13:46.942Z,1016.79
2022-07-28T06:14:46.880Z,1016.75
2022-07-28T06:15:46.821Z,1016.80
2022-07-28T06:16:46.839Z,1016.76
2022-07-28T06:17:46.720Z,1016.73
2022-07-28T06:18:46.650Z,1016.72
2022-07-28T06:19:46.595Z,1016.75
2022-07-28T06:20:46.532Z,1016.81
2022-07-28T06:21:46.489Z,1016.79
2022-07-28T06:22:46.426Z,1016.85
2022-07-28T06:23:46.360Z,1016.86
2022-07-28T06:24:46.303Z,1016.83
2022-07-28T06:25:46.243Z,1016.84
2022-07-28T06:26:46.192Z,1016.87
2022-07-28T06:27:46.133Z,1016.88
2022-07-28T06:28:46.076Z,1016.83
2022-07-28T06:29:46.015Z,1016.82
2022-07-28T06:30:45.967Z,1016.86
2022-07-28T06:31:46.036Z,1016.84
2022-07-28T06:32:45.848Z,1016.88
2022-07-28T06:33:45.785Z,1016.84
2022-07-28T06:34:45.730Z,1016.84
2022-07-28T06:35:48.274Z,1016.84
2022-07-28T06:36:45.618Z,1016.84
2022-07-28T06:37:45.565Z,1016.87
2022-07-28T06:38:45.513Z,1016.86
2022-07-28T06:39:45.448Z,1016.84
2022-07-28T06:40:45.392Z,1016.83
2022-07-28T06:41:45.328Z,1016.82
2022-07-28T06:42:45.280Z,1016.81
2022-07-28T06:43:45.213Z,1016.83
2022-07-28T06:44:58.382Z,1016.86
2022-07-28T06:45:45.119Z,1016.81
2022-07-28T06:46:45.077Z,1016.79
2022-07-28T06:47:47.173Z,1016.80
2022-07-28T06:48:44.976Z,1016.83
2022-07-28T06:49:44.873Z,1016.79
2022-07-28T06:50:44.818Z,1016.82
2022-07-28T06:51:44.760Z,1016.80
2022-07-28T06:52:44.703Z,1016.76
2022-07-28T06:53:44.644Z,1016.79
2022-07-28T06:54:48.531Z,1016.76
2022-07-28T06:55:44.540Z,1016.80
2022-07-28T06:56:44.476Z,1016.76
2022-07-28T06:57:44.418Z,1016.76
2022-07-28T06:58:47.120Z,1016.76
2022-07-28T06:59:44.348Z,1016.78
2022-07-28T07:00:44.305Z,1016.77
2022-07-28T07:01:44.191Z,1016.76
2022-07-28T07:02:44.149Z,1016.74
2022-07-28T07:03:44.201Z,1016.75
2022-07-28T07:04:44.107Z,1016.75
2022-07-28T07:05:43.965Z,1016.77
2022-07-28T07:06:43.909Z,1016.76
2022-07-28T07:07:43.964Z,1016.75
2022-07-28T07:08:43.801Z,1016.73
2022-07-28T07:09:43.770Z,1016.74
2022-07-28T07:10:43.685Z,1016.71
2022-07-28T07:11:43.631Z,1016.70
2022-07-28T07:12:43.571Z,1016.68
2022-07-28T07:13:43.515Z,1016.73
2022-07-28T07:14:43.468Z,1016.74
2022-07-28T07:15:43.400Z,1016.69
2022-07-28T07:16:43.432Z,1016.70
2022-07-28T07:17:43.288Z,1016.73
2022-07-28T07:18:43.233Z,1016.70
2022-07-28T07:19:43.183Z,1016.72
2022-07-28T07:20:43.121Z,1016.73
2022-07-28T07:21:43.062Z,1016.72
2022-07-28T07:22:43.014Z,1016.73
2022-07-28T07:23:42.951Z,1016.71
2022-07-28T07:24:42.897Z,1016.69
2022-07-28T07:25:42.945Z,1016.71
2022-07-28T07:26:42.785Z,1016.71
2022-07-28T07:27:42.728Z,1016.69
2022-07-28T07:28:42.676Z,1016.73
2022-07-28T07:29:42.616Z,1016.73
2022-07-28T07:30:42.560Z,1016.75
2022-07-28T07:31:42.578Z,1016.70
2022-07-28T07:32:42.446Z,1016.75
2022-07-28T07:33:42.390Z,1016.78
2022-07-28T07:34:42.335Z,1016.80
2022-07-28T07:35:42.295Z,1016.82
2022-07-28T07:36:42.225Z,1016.81
2022-07-28T07:37:42.167Z,1016.83
2022-07-28T07:38:42.112Z,1016.80
2022-07-28T07:39:42.059Z,1016.82
2022-07-28T07:40:42.004Z,1016.82
2022-07-28T07:41:41.944Z,1016.83
2022-07-28T07:42:41.890Z,1016.83
2022-07-28T07:43:45.846Z,1016.80
2022-07-28T07:44:41.779Z,1016.81
2022-07-28T07:45:41.739Z,1016.84
2022-07-28T07:46:41.725Z,1016.86
2022-07-28T07:47:41.612Z,1016.86
2022-07-28T07:48:41.597Z,1016.84
2022-07-28T07:49:45.354Z,1016.85
2022-07-28T07:50:41.445Z,1016.82
2022-07-28T07:51:41.421Z,1016.84
2022-07-28T07:52:41.339Z,1016.79
2022-07-28T07:53:41.279Z,1016.80
2022-07-28T07:54:41.226Z,1016.79
2022-07-28T07:55:41.168Z,1016.81
2022-07-28T07:56:41.113Z,1016.78
2022-07-28T07:57:41.065Z,1016.77
2022-07-28T07:58:41.006Z,1016.78
2022-07-28T07:59:40.949Z,1016.80
2022-07-28T08:00:40.892Z,1016.80
2022-07-28T08:01:40.918Z,1016.86
2022-07-28T08:02:40.783Z,1016.81
2022-07-28T08:03:40.725Z,1016.84
2022-07-28T08:04:40.712Z,1016.86
2022-07-28T08:05:40.616Z,1016.82
2022-07-28T08:06:40.563Z,1016.83
2022-07-28T08:07:40.509Z,1016.80
2022-07-28T08:08:46.385Z,1016.82
2022-07-28T08:09:40.425Z,1016.82
2022-07-28T08:10:40.343Z,1016.82
2022-07-28T08:11:40.288Z,1016.79
2022-07-28T08:12:40.250Z,1016.78
2022-07-28T08:13:40.201Z,1016.84
2022-07-28T08:14:40.127Z,1016.82
2022-07-28T08:15:40.162Z,1016.78
2022-07-28T08:16:40.132Z,1016.80
2022-07-28T08:17:39.955Z,1016.77
2022-07-28T08:18:39.901Z,1016.80
2022-07-28T08:19:39.849Z,1016.71
2022-07-28T08:20:39.792Z,1016.75
2022-07-28T08:21:39.813Z,1016.78
2022-07-28T08:22:39.680Z,1016.80
2022-07-28T08:23:39.729Z,1016.75
2022-07-28T08:24:39.626Z,1016.82
2022-07-28T08:25:39.632Z,1016.76
2022-07-28T08:26:39.545Z,1016.78
2022-07-28T08:27:39.443Z,1016.74
2022-07-28T08:28:39.354Z,1016.77
2022-07-28T08:29:39.320Z,1016.77
2022-07-28T08:30:39.256Z,1016.77
2022-07-28T08:31:39.259Z,1016.78
2022-07-28T08:32:39.131Z,1016.77
2022-07-28T08:33:53.340Z,1016.76
2022-07-28T08:34:39.021Z,1016.79
2022-07-28T08:35:38.963Z,1016.79
2022-07-28T08:36:38.912Z,1016.77
2022-07-28T08:37:38.862Z,1016.77
2022-07-28T08:38:38.815Z,1016.77
2022-07-28T08:39:38.749Z,1016.78
2022-07-28T08:40:38.698Z,1016.81
2022-07-28T08:41:38.636Z,1016.82
2022-07-28T08:42:38.594Z,1016.85
2022-07-28T08:43:38.537Z,1016.89
2022-07-28T08:44:38.467Z,1016.92
2022-07-28T08:45:38.412Z,1016.90
2022-07-28T08:46:38.411Z,1016.87
2022-07-28T08:47:58.572Z,1016.85
2022-07-28T08:48:38.366Z,1016.85
2022-07-28T08:49:39.319Z,1016.86
2022-07-28T08:50:38.159Z,1016.83
2022-07-28T08:51:38.101Z,1016.81
2022-07-28T08:52:38.027Z,1016.80
2022-07-28T08:53:38.003Z,1016.85
2022-07-28T08:54:37.918Z,1016.85
2022-07-28T08:55:37.891Z,1016.86
2022-07-28T08:56:37.822Z,1016.86
2022-07-28T08:57:37.753Z,1016.83
2022-07-28T08:58:37.700Z,1016.90
2022-07-28T08:59:37.661Z,1016.85
2022-07-28T09:00:37.590Z,1016.83
2022-07-28T09:01:39.402Z,1016.89
2022-07-28T09:02:37.594Z,1016.82
2022-07-28T09:03:37.492Z,1016.84
2022-07-28T09:04:37.371Z,1016.82
2022-07-28T09:05:37.334Z,1016.83
2022-07-28T09:06:37.260Z,1016.85
2022-07-28T09:07:37.216Z,1016.90
2022-07-28T09:08:37.154Z,1016.85
2022-07-28T09:09:37.095Z,1016.88
2022-07-28T09:10:37.037Z,1016.87
2022-07-28T09:11:36.982Z,1016.86
2022-07-28T09:12:36.951Z,1016.87
2022-07-28T09:13:36.884Z,1016.88
2022-07-28T09:14:36.838Z,1016.87
2022-07-28T09:15:36.791Z,1016.81
2022-07-28T09:16:36.705Z,1016.82
2022-07-28T09:17:36.660Z,1016.84
2022-07-28T09:18:36.597Z,1016.86
2022-07-28T09:19:36.552Z,1016.89
2022-07-28T09:20:36.490Z,1016.87
2022-07-28T09:21:36.433Z,1016.86
2022-07-28T09:22:36.408Z,1016.94
2022-07-28T09:23:43.801Z,1016.88
2022-07-28T09:24:36.267Z,1016.93
2022-07-28T09:25:36.223Z,1016.91
2022-07-28T09:26:36.160Z,1016.91
2022-07-28T09:27:36.100Z,1016.91
2022-07-28T09:28:36.051Z,1016.90
2022-07-28T09:29:35.987Z,1016.89
2022-07-28T09:30:35.947Z,1016.87
2022-07-28T09:31:35.962Z,1016.89
2022-07-28T09:32:35.825Z,1016.89
2022-07-28T09:33:42.962Z,1016.91
2022-07-28T09:34:35.718Z,1016.89
2022-07-28T09:35:35.655Z,1016.86
2022-07-28T09:36:35.609Z,1016.88
2022-07-28T09:37:35.549Z,1016.85
2022-07-28T09:38:35.493Z,1016.87
2022-07-28T09:39:35.438Z,1016.88
2022-07-28T09:40:35.384Z,1016.91
2022-07-28T09:41:35.328Z,1016.86
2022-07-28T09:42:35.273Z,1016.87
2022-07-28T09:43:35.229Z,1016.89
2022-07-28T09:44:35.163Z,1016.88
2022-07-28T09:45:35.116Z,1016.89
2022-07-28T09:46:35.227Z,1016.86
2022-07-28T09:47:35.094Z,1016.83
2022-07-28T09:48:35.135Z,1016.86
2022-07-28T09:49:34.929Z,1016.86
2022-07-28T09:50:34.835Z,1016.87
2022-07-28T09:51:34.775Z,1016.87
2022-07-28T09:52:34.723Z,1016.88
2022-07-28T09:53:34.666Z,1016.85
2022-07-28T09:54:40.242Z,1016.83
2022-07-28T09:55:34.572Z,1016.87
2022-07-28T09:56:34.501Z,1016.84
2022-07-28T09:57:36.842Z,1016.82
2022-07-28T09:58:34.393Z,1016.79
2022-07-28T09:59:34.344Z,1016.76
2022-07-28T10:00:34.293Z,1016.76
2022-07-28T10:01:36.594Z,1016.76
2022-07-28T10:02:34.214Z,1016.76
2022-07-28T10:03:34.119Z,1016.79
2022-07-28T10:04:34.079Z,1016.74
2022-07-28T10:05:34.011Z,1016.74
2022-07-28T10:06:33.955Z,1016.70
2022-07-28T10:07:33.902Z,1016.68
2022-07-28T10:08:33.848Z,1016.71
2022-07-28T10:09:33.790Z,1016.72
2022-07-28T10:10:33.738Z,1016.68
2022-07-28T10:11:37.694Z,1016.69
2022-07-28T10:12:33.626Z,1016.70
2022-07-28T10:13:33.574Z,1016.64
2022-07-28T10:14:33.518Z,1016.68
2022-07-28T10:15:33.604Z,1016.65
2022-07-28T10:16:33.481Z,1016.64
2022-07-28T10:17:33.388Z,1016.68
2022-07-28T10:18:33.302Z,1016.66
2022-07-28T10:19:33.247Z,1016.61
2022-07-28T10:20:33.190Z,1016.65
2022-07-28T10:21:33.139Z,1016.65
2022-07-28T10:22:33.195Z,1016.67
2022-07-28T10:23:33.030Z,1016.64
2022-07-28T10:24:32.974Z,1016.67
2022-07-28T10:25:32.932Z,1016.65
2022-07-28T10:26:32.866Z,1016.65
2022-07-28T10:27:32.815Z,1016.63
2022-07-28T10:28:32.756Z,1016.65
2022-07-28T10:29:32.704Z,1016.66
2022-07-28T10:30:32.697Z,1016.65
2022-07-28T10:31:32.673Z,1016.62
2022-07-28T10:32:32.541Z,1016.68
2022-07-28T10:33:32.499Z,1016.60
2022-07-28T10:34:32.433Z,1016.61
2022-07-28T10:35:32.379Z,1016.59
2022-07-28T10:36:32.327Z,1016.59
2022-07-28T10:37:32.269Z,1016.56
2022-07-28T10:38:32.216Z,1016.54
2022-07-28T10:39:32.161Z,1016.55
2022-07-28T10:40:32.105Z,1016.55
2022-07-28T10:41:32.053Z,1016.55
2022-07-28T10:42:32.022Z,1016.60
2022-07-28T10:43:31.948Z,1016.55
2022-07-28T10:44:31.888Z,1016.51
2022-07-28T10:45:54.973Z,1016.54
2022-07-28T10:46:31.845Z,1016.50
2022-07-28T10:47:32.520Z,1016.50
2022-07-28T10:48:31.671Z,1016.51
2022-07-28T10:49:32.707Z,1016.50
2022-07-28T10:50:31.562Z,1016.52
2022-07-28T10:51:31.508Z,1016.52
2022-07-28T10:52:46.685Z,1016.53
2022-07-28T10:53:31.398Z,1016.54
2022-07-28T10:54:31.341Z,1016.55
2022-07-28T10:55:32.039Z,1016.54
2022-07-28T10:56:31.232Z,1016.53
2022-07-28T10:57:31.178Z,1016.54
2022-07-28T10:58:31.124Z,1016.51
2022-07-28T10:59:31.069Z,1016.48
2022-07-28T11:00:46.715Z,1016.47
2022-07-28T11:01:47.731Z,1016.47
2022-07-28T11:02:31.017Z,1016.48
2022-07-28T11:03:30.950Z,1016.54
2022-07-28T11:04:30.799Z,1016.53
2022-07-28T11:05:30.744Z,1016.54
2022-07-28T11:06:30.697Z,1016.54
2022-07-28T11:07:30.664Z,1016.50
2022-07-28T11:08:30.577Z,1016.51
2022-07-28T11:09:30.649Z,1016.50
2022-07-28T11:10:30.518Z,1016.51
2022-07-28T11:11:30.458Z,1016.53
2022-07-28T11:12:30.432Z,1016.55
2022-07-28T11:13:30.371Z,1016.52
2022-07-28T11:14:30.338Z,1016.51
2022-07-28T11:15:32.268Z,1016.52
2022-07-28T11:16:35.781Z,1016.50
2022-07-28T11:17:33.596Z,1016.49
2022-07-28T11:18:30.094Z,1016.46
2022-07-28T11:19:36.668Z,1016.42
2022-07-28T11:20:30.165Z,1016.47
2022-07-28T11:21:30.970Z,1016.45
2022-07-28T11:22:32.023Z,1016.45
2022-07-28T11:23:30.424Z,1016.41
2022-07-28T11:24:29.893Z,1016.44
2022-07-28T11:25:29.699Z,1016.42
2022-07-28T11:26:29.635Z,1016.43
2022-07-28T11:27:29.607Z,1016.45
2022-07-28T11:28:29.543Z,1016.48
2022-07-28T11:29:29.519Z,1016.46
2022-07-28T11:30:29.483Z,1016.46
2022-07-28T11:31:29.361Z,1016.43
2022-07-28T11:32:33.814Z,1016.43
2022-07-28T11:33:29.267Z,1016.39
2022-07-28T11:34:29.243Z,1016.33
2022-07-28T11:35:29.149Z,1016.36
2022-07-28T11:36:29.082Z,1016.38
2022-07-28T11:37:29.055Z,1016.32
2022-07-28T11:38:28.986Z,1016.31
2022-07-28T11:39:28.985Z,1016.30
2022-07-28T11:40:28.911Z,1016.27
2022-07-28T11:41:28.888Z,1016.30
2022-07-28T11:42:28.908Z,1016.25
2022-07-28T11:43:36.082Z,1016.26
2022-07-28T11:44:28.690Z,1016.23
2022-07-28T11:45:37.876Z,1016.31
2022-07-28T11:46:28.596Z,1016.30
2022-07-28T11:47:28.505Z,1016.31
2022-07-28T11:48:28.508Z,1016.28
2022-07-28T11:49:28.554Z,1016.33
2022-07-28T11:50:28.350Z,1016.28
2022-07-28T11:51:28.324Z,1016.27
2022-07-28T11:52:28.236Z,1016.26
2022-07-28T11:53:28.235Z,1016.25
2022-07-28T11:54:28.142Z,1016.24
2022-07-28T11:55:55.776Z,1016.28
2022-07-28T11:56:28.051Z,1016.25
2022-07-28T11:57:27.958Z,1016.25
2022-07-28T11:58:27.890Z,1016.20
2022-07-28T11:59:36.699Z,1016.23
2022-07-28T12:00:27.808Z,1016.19
2022-07-28T12:01:27.773Z,1016.13
2022-07-28T12:02:27.739Z,1016.17
2022-07-28T12:03:29.071Z,1016.16
2022-07-28T12:04:27.669Z,1016.14